Home > Products > Valid Products > TAF

000
FTUS43 KJKL 311400 AAB
TAFSME
TAF AMD
KSME 311421Z 3114/0112 VRB03KT 5SM -RA SCT004 OVC050
     FM311500 VRB06KT 6SM -SHRA BR OVC025
     FM010200 29007KT 3SM -RA BR OVC012
     FM010400 30009KT 2SM -SN BR OVC007=



000
FTUS43 KJKL 311300 AAA
TAFJKL
TAF AMD
KJKL 311338Z 3114/0112 VRB03KT 5SM -RA OVC040
     FM311600 VRB03KT 6SM -SHRA BR SCT025 BKN040
     FM311800 VRB06KT 6SM -SHRA BR OVC025
     FM010000 29007KT 3SM -RA BR OVC012
     FM010600 30009KT 2SM -SN BR OVC007=



000
FTUS43 KJKL 311200 AAA
TAFSME
TAF AMD
KSME 311243Z 3113/0112 VRB03KT 5SM -RA OVC050
     FM311500 VRB06KT 6SM -SHRA BR OVC025
     FM010200 29007KT 3SM -RA BR OVC012
     FM010400 30009KT 2SM -SN BR OVC007=



000
FTUS43 KJKL 311100
TAFSME
TAF
KSME 311140Z 3112/0112 VRB03KT P6SM -RA OVC050
     FM311500 VRB06KT 6SM -SHRA BR OVC025
     FM010200 29007KT 3SM -RA BR OVC012
     FM010400 30009KT 2SM -SN BR OVC007=



000
FTUS43 KJKL 311100
TAFLOZ
TAF
KLOZ 311140Z 3112/0112 VRB03KT P6SM -RA OVC050
     FM311400 VRB03KT 6SM -SHRA BR SCT025 BKN040
     FM311600 VRB06KT 6SM -SHRA BR OVC025
     FM010000 29007KT 3SM -RA BR OVC012
     FM010500 30009KT 2SM -SN BR OVC007=



000
FTUS43 KJKL 311100
TAFJKL
TAF
KJKL 311140Z 3112/0112 VRB03KT P6SM -RA OVC050
     FM311600 VRB03KT 6SM -SHRA BR SCT025 BKN040
     FM311800 VRB06KT 6SM -SHRA BR OVC025
     FM010000 29007KT 3SM -RA BR OVC012
     FM010600 30009KT 2SM -SN BR OVC007=



000
FTUS43 KJKL 310500
TAFJKL
TAF
KJKL 310537Z 3106/0106 VRB03KT P6SM SCT100 BKN200
     FM310900 00000KT P6SM VCSH BKN050
     FM311500 VRB03KT 6SM -SHRA BR SCT025 BKN040
     FM311900 VRB06KT 6SM -SHRA BR OVC025
     FM010000 29007KT 3SM -RA BR OVC012=



000
FTUS43 KJKL 310500
TAFLOZ
TAF
KLOZ 310537Z 3106/0106 VRB03KT P6SM SCT100 BKN200
     FM310800 00000KT P6SM VCSH BKN050 BKN080
     FM311400 VRB03KT 6SM -SHRA BR SCT025 BKN040
     FM311700 VRB06KT 6SM -SHRA BR OVC025
     FM010000 29007KT 3SM -RA BR OVC012=



000
FTUS43 KJKL 310500
TAFSME
TAF
KSME 310537Z 3106/0106 VRB03KT P6SM SCT100 BKN200
     FM310700 00000KT P6SM BKN050
     FM311300 VRB03KT 6SM -SHRA BR SCT025 BKN040
     FM311700 VRB06KT 6SM -SHRA BR OVC025
     FM010200 29007KT 3SM -RA BR OVC012=



000
FTUS43 KJKL 302300
TAFJKL
TAF
KJKL 302321Z 3100/3124 VRB03KT P6SM SCT100 BKN200
     FM310900 00000KT P6SM VCSH SCT035 BKN080
     FM311500 VRB03KT 6SM -SHRA BR SCT025 BKN040
     FM311900 VRB06KT 2SM -SHRA BR OVC025=



000
FTUS43 KJKL 302300
TAFSME
TAF
KSME 302321Z 3100/3124 VRB03KT P6SM SCT100 BKN200
     FM310700 00000KT P6SM BKN080
     FM311300 VRB03KT 6SM -SHRA BR SCT025 BKN040
     FM311700 VRB06KT 2SM -SHRA BR OVC025=



000
FTUS43 KJKL 302300
TAFLOZ
TAF
KLOZ 302321Z 3100/3124 VRB03KT P6SM SCT100 BKN200
     FM310800 00000KT P6SM VCSH SCT035 BKN080
     FM311400 VRB03KT 6SM -SHRA BR SCT025 BKN040
     FM311800 VRB06KT 2SM -SHRA BR OVC025=



000
FTUS43 KJKL 301700
TAFJKL
TAF
KJKL 301734Z 3018/3118 VRB05KT P6SM SCT035
     FM310600 00000KT P6SM SCT035 BKN080
     FM311300 VRB03KT P6SM -SHRA BKN040=



000
FTUS43 KJKL 301700
TAFSME
TAF
KSME 301734Z 3018/3118 32005KT P6SM FEW035
     FM310600 00000KT P6SM BKN080
     FM311300 VRB03KT P6SM -SHRA BKN040=



000
FTUS43 KJKL 301700
TAFLOZ
TAF
KLOZ 301734Z 3018/3118 VRB03KT P6SM FEW035
     FM310600 00000KT P6SM SCT035 BKN080
     FM311300 VRB03KT P6SM -SHRA BKN040=



000
FTUS43 KJKL 301700
TAFSME
TAF
KSME 301734Z 3018/3118 32005KT P6SM FEW035
     FM310600 00000KT P6SM BKN080
     FM311300 VRB03KT P6SM -SHRA BKN040=



000
FTUS43 KJKL 301700
TAFLOZ
TAF
KLOZ 301734Z 3018/3118 VRB03KT P6SM FEW035
     FM310600 00000KT P6SM SCT035 BKN080
     FM311300 VRB03KT P6SM -SHRA BKN040=



000
FTUS43 KJKL 301700
TAFJKL
TAF
KJKL 301734Z 3018/3118 VRB05KT P6SM SCT035
     FM310600 00000KT P6SM SCT035 BKN080
     FM311300 VRB03KT P6SM -SHRA BKN040=



000
FTUS43 KJKL 301100
TAFSME
TAF
KSME 301130Z 3012/3112 01003KT P6SM SKC
     FM301300 32005KT P6SM SCT250
     FM311000 00000KT P6SM BKN060=



000
FTUS43 KJKL 301100
TAFJKL
TAF
KJKL 301130Z 3012/3112 00000KT P6SM SCT040
     FM301400 32005KT P6SM SCT250=



000
FTUS43 KJKL 301100
TAFLOZ
TAF
KLOZ 301130Z 3012/3112 02003KT P6SM SKC
     FM301400 33005KT P6SM SCT250=



000
FTUS43 KJKL 300500
TAFJKL
TAF
KJKL 300539Z 3006/3106 00000KT P6SM SKC
     FM301400 32005KT P6SM SCT250=



000
FTUS43 KJKL 300500
TAFSME
TAF
KSME 300539Z 3006/3106 00000KT P6SM SKC
     FM301000 00000KT 4SM BR SKC
     FM301300 32005KT P6SM SCT250=



000
FTUS43 KJKL 300500
TAFLOZ
TAF
KLOZ 300539Z 3006/3106 00000KT P6SM SKC
     FM301000 00000KT 4SM BR FEW040
     FM301400 33005KT P6SM SCT250=



000
FTUS43 KJKL 292300
TAFSME
TAF
KSME 292322Z 3000/3024 31005KT P6SM FEW040
     FM300600 00000KT 5SM BR SKC
     FM300900 00000KT 1SM BR SKC
     FM301300 32005KT P6SM SCT250=



000
FTUS43 KJKL 292300
TAFJKL
TAF
KJKL 292322Z 3000/3024 29005KT P6SM FEW030
     FM301400 32005KT P6SM SCT250=



000
FTUS43 KJKL 292300
TAFLOZ
TAF
KLOZ 292322Z 3000/3024 26007KT P6SM FEW040
     FM301000 00000KT 4SM BR FEW040
     FM301400 33005KT P6SM SCT250=



000
FTUS43 KJKL 291700
TAFJKL
TAF
KJKL 291739Z 2918/3018 26005KT P6SM FEW040
     FM300200 29003KT P6SM SCT030
     FM301400 32005KT P6SM SCT250=



000
FTUS43 KJKL 291700
TAFLOZ
TAF
KLOZ 291739Z 2918/3018 26007KT P6SM FEW040
     FM300300 VRB03KT P6SM SCT030
     FM301000 00000KT 5SM BR SCT030
     FM301400 32005KT P6SM SCT250=



000
FTUS43 KJKL 291700
TAFSME
TAF
KSME 291739Z 2918/3018 26007KT P6SM FEW040
     FM300300 00000KT P6SM SCT030
     FM301100 00000KT 5SM BR SCT030
     FM301400 32005KT P6SM SCT250=



000
FTUS43 KJKL 291400 AAB
TAFJKL
TAF AMD
KJKL 291441Z 2915/3012 VRB03KT P6SM SCT005 BKN050
     FM291545 28004KT P6SM FEW050
     FM292300 32003KT P6SM SCT030=



000
FTUS43 KJKL 291400 AAA
TAFLOZ
TAF AMD
KLOZ 291441Z 2915/3012 VRB03KT P6SM SCT007 BKN050
     FM291530 29006KT P6SM FEW050
     FM292300 32003KT P6SM SCT030=



000
FTUS43 KJKL 291400 AAA
TAFSME
TAF AMD
KSME 291441Z 2915/3012 VRB03KT P6SM SCT007 BKN050
     FM291530 29006KT P6SM FEW050
     FM292300 33003KT P6SM SCT030=



000
FTUS43 KJKL 291200 AAA
TAFJKL
TAF AMD
KJKL 291245Z 2913/3012 VRB03KT 1SM BR BKN002 BKN050
     FM291400 VRB03KT P6SM FEW001 BKN050
     FM291600 28004KT P6SM FEW050=



000
FTUS43 KJKL 291100
TAFLOZ
TAF
KLOZ 291138Z 2912/3012 VRB03KT P6SM -RA SCT008 BKN050
     FM291300 29006KT P6SM FEW050
     FM292300 00000KT P6SM SKC=



000
FTUS43 KJKL 291100
TAFJKL
TAF
KJKL 291138Z 2912/3012 VRB03KT 1SM BR FEW001 BKN050
     FM291300 VRB03KT P6SM FEW050=



000
FTUS43 KJKL 291100
TAFSME
TAF
KSME 291138Z 2912/3012 VRB03KT P6SM SCT004 BKN050
     FM291300 29006KT P6SM FEW050
     FM292300 00000KT P6SM SKC=



000
FTUS43 KJKL 290500
TAFSME
TAF
KSME 290530Z 2906/3006 00000KT P6SM VCSH SCT035 OVC060
     FM291300 29006KT P6SM SKC
     FM292300 00000KT P6SM SKC=



000
FTUS43 KJKL 290500
TAFLOZ
TAF
KLOZ 290530Z 2906/3006 00000KT 4SM -SHRA BR SCT030 OVC060
     FM291400 29006KT P6SM SKC
     FM292300 00000KT P6SM SKC=



000
FTUS43 KJKL 290500
TAFJKL
TAF
KJKL 290530Z 2906/3006 00000KT 4SM -SHRA BR SCT035 OVC060
     FM291400 29006KT P6SM SKC
     FM292300 00000KT P6SM SKC=



000
FTUS43 KJKL 290200 AAB
TAFJKL
TAF AMD
KJKL 290259Z 2903/2924 26008KT 2SM -SHRA BR OVC030
     FM290600 29003KT 6SM BR VCSH OVC025
     FM291400 30009KT P6SM FEW035=



000
FTUS43 KJKL 290100 AAA
TAFSME
TAF AMD
KSME 290133Z 2902/2924 29009KT P6SM BKN015 OVC050
     FM290500 31006KT P6SM VCSH BKN025 OVC050
     FM291400 30009KT P6SM FEW035=



000
FTUS43 KJKL 290100 AAA
TAFSME
TAF AMD
KSME 290133Z 2902/2924 29009KT P6SM BKN015 OVC050
     FM290500 31006KT P6SM VCSH BKN025 OVC050
     FM291400 30009KT P6SM FEW035=



000
FTUS43 KJKL 290100 AAA
TAFJKL
TAF AMD
KJKL 290132Z 2902/2924 26008KT 1 1/2SM -SHRA BR OVC004
     FM290600 29003KT 6SM BR VCSH OVC025
     FM291400 30009KT P6SM FEW035=



000
FTUS43 KJKL 290100 AAA
TAFLOZ
TAF AMD
KLOZ 290132Z 2902/2924 31009KT 4SM -SHRA BR BKN006 OVC025
     FM290300 31003KT 6SM BR VCSH BKN025 OVC040
     FM291300 31009KT P6SM FEW035=



000
FTUS43 KJKL 290100 AAA
TAFJKL
TAF AMD
KJKL 290132Z 2902/2924 26008KT 1 1/2SM -SHRA BR OVC004
     FM290600 29003KT 6SM BR VCSH OVC025
     FM291400 30009KT P6SM FEW035=



000
FTUS43 KJKL 290100 AAA
TAFLOZ
TAF AMD
KLOZ 290132Z 2902/2924 31009KT 4SM -SHRA BR BKN006 OVC025
     FM290300 31003KT 6SM BR VCSH BKN025 OVC040
     FM291300 31009KT P6SM FEW035=



000
FTUS43 KJKL 282300
TAFSME
TAF
KSME 282325Z 2900/2924 29009KT P6SM BKN035 OVC050
     FM290200 31006KT P6SM VCSH BKN025 OVC050
     FM291400 30009KT P6SM FEW035=



000
FTUS43 KJKL 282300
TAFLOZ
TAF
KLOZ 282325Z 2900/2924 31009KT 6SM -SHRA BKN035 OVC040
     FM290400 31003KT 6SM BR VCSH BKN025 OVC040
     FM291300 31009KT P6SM FEW035=



000
FTUS43 KJKL 282300
TAFJKL
TAF
KJKL 282325Z 2900/2924 26008KT P6SM VCSH BKN035 OVC050
     FM290600 29003KT 6SM BR VCSH OVC025
     FM291400 30009KT P6SM FEW035=



000
FTUS43 KJKL 282000 AAA
TAFSME
TAF AMD
KSME 282012Z 2820/2918 23012G18KT P6SM BKN035 BKN050 BKN250
     FM282100 23010G16KT P6SM VCSH BKN030 OVC050
     FM290200 29005KT P6SM -SHRA BKN025 OVC050
     FM290800 34003KT 6SM BR VCSH BKN030 OVC040
     FM291300 31005KT P6SM FEW035 FEW100=



000
FTUS43 KJKL 282000 AAA
TAFLOZ
TAF AMD
KLOZ 282011Z 2820/2918 22012G18KT P6SM SCT035 BKN050 BKN250
     FM282100 22012KT P6SM VCSH SCT030 OVC050
     FM290200 29005KT P6SM -SHRA BKN025 OVC050
     FM290800 34003KT 6SM BR VCSH BKN030 OVC040
     FM291300 31005KT P6SM FEW035 FEW100=



000
FTUS43 KJKL 282000 AAA
TAFJKL
TAF AMD
KJKL 282010Z 2820/2918 22008G16KT P6SM SCT035 BKN050 BKN250
     FM282200 22008G15KT P6SM VCSH BKN035 OVC050
     FM290200 28003KT P6SM -SHRA BKN025 OVC050
     FM290900 33003KT 6SM BR VCSH BKN030 OVC040
     FM291300 31003KT P6SM FEW035 FEW100=



000
FTUS43 KJKL 281700 RRA
TAFJKL
TAF
KJKL 281742Z 2818/2918 22008G16KT P6SM SCT035 BKN050 BKN250
     FM282000 22008G15KT 6SM -SHRA VCTS BKN030CB OVC050
     FM290200 28003KT P6SM -SHRA BKN025 OVC050
     FM290900 33003KT 6SM BR VCSH BKN030 OVC040
     FM291300 31003KT P6SM FEW035 FEW100=



000
FTUS43 KJKL 281700 RRA
TAFLOZ
TAF
KLOZ 281742Z 2818/2918 22012G18KT P6SM SCT035 BKN050 BKN250
     FM282100 23012KT 6SM -SHRA VCTS BKN030CB OVC050
     FM290200 29005KT P6SM -SHRA BKN025 OVC050
     FM290800 34003KT 6SM BR VCSH BKN030 OVC040
     FM291300 31005KT P6SM FEW035 FEW100=



000
FTUS43 KJKL 281700 RRA
TAFSME
TAF
KSME 281742Z 2818/2918 23012G18KT P6SM BKN035 BKN050 BKN250
     FM282000 23010G16KT 6SM -SHRA VCTS BKN030CB OVC050
     FM290200 29005KT P6SM -SHRA BKN025 OVC050
     FM290800 34003KT 6SM BR VCSH BKN030 OVC040
     FM291300 31005KT P6SM FEW035 FEW100=



    US Dept of Commerce
    National Oceanic and Atmospheric Administration
    National Weather Service
    1325 East West Highway
    Silver Spring, MD 20910
    Page Author: NWS Internet Services Team
Disclaimer
Information Quality
Credits
Glossary
Privacy Policy
Freedom of Information Act (FOIA)
About Us
Career Opportunities